createdAt,value
2018-07-07T00:00:41.303Z,17.91
2018-07-07T00:01:41.289Z,18.05
2018-07-07T00:02:41.276Z,17.93
2018-07-07T00:03:41.260Z,18.00
2018-07-07T00:04:41.247Z,18.00
2018-07-07T00:05:41.241Z,17.94
2018-07-07T00:06:41.219Z,18.06
2018-07-07T00:07:41.206Z,18.05
2018-07-07T00:08:41.190Z,18.05
2018-07-07T00:09:41.184Z,18.05
2018-07-07T00:10:41.177Z,17.97
2018-07-07T00:11:41.149Z,18.00
2018-07-07T00:12:41.135Z,18.00
2018-07-07T00:13:41.122Z,18.03
2018-07-07T00:14:41.108Z,17.94
2018-07-07T00:15:41.094Z,17.98
2018-07-07T00:16:41.081Z,17.93
2018-07-07T00:17:41.066Z,17.94
2018-07-07T00:18:41.053Z,17.93
2018-07-07T00:19:41.038Z,17.90
2018-07-07T00:20:41.025Z,18.00
2018-07-07T00:21:41.013Z,17.93
2018-07-07T00:22:40.998Z,17.86
2018-07-07T00:23:40.983Z,17.91
2018-07-07T00:24:40.969Z,17.97
2018-07-07T00:25:40.959Z,17.78
2018-07-07T00:26:40.945Z,17.78
2018-07-07T00:27:40.936Z,17.76
2018-07-07T00:28:40.914Z,17.73
2018-07-07T00:29:40.985Z,17.79
2018-07-07T00:30:40.887Z,17.78
2018-07-07T00:31:40.871Z,17.78
2018-07-07T00:32:40.861Z,17.54
2018-07-07T00:33:40.844Z,17.66
2018-07-07T00:34:40.833Z,17.60
2018-07-07T00:35:40.817Z,17.52
2018-07-07T00:36:40.811Z,17.52
2018-07-07T00:37:40.789Z,17.53
2018-07-07T00:38:40.776Z,17.46
2018-07-07T00:39:40.761Z,17.42
2018-07-07T00:40:40.754Z,17.46
2018-07-07T00:41:40.735Z,17.44
2018-07-07T00:42:40.718Z,17.42
2018-07-07T00:43:40.701Z,17.52
2018-07-07T00:44:40.691Z,17.46
2018-07-07T00:45:40.676Z,17.49
2018-07-07T00:46:40.662Z,17.52
2018-07-07T00:47:40.653Z,17.42
2018-07-07T00:48:40.634Z,17.49
2018-07-07T00:49:40.619Z,17.46
2018-07-07T00:50:40.606Z,17.44
2018-07-07T00:51:40.601Z,17.35
2018-07-07T00:52:40.577Z,17.34
2018-07-07T00:53:40.573Z,17.27
2018-07-07T00:54:40.550Z,17.31
2018-07-07T00:55:40.541Z,17.32
2018-07-07T00:56:40.529Z,17.30
2018-07-07T00:57:40.507Z,17.30
2018-07-07T00:58:40.492Z,17.31
2018-07-07T00:59:40.493Z,17.30
2018-07-07T01:00:40.465Z,17.28
2018-07-07T01:01:40.449Z,17.23
2018-07-07T01:02:40.437Z,17.19
2018-07-07T01:03:40.433Z,17.22
2018-07-07T01:04:40.413Z,17.16
2018-07-07T01:05:40.395Z,17.13
2018-07-07T01:06:40.379Z,17.12
2018-07-07T01:07:40.365Z,17.17
2018-07-07T01:08:40.350Z,17.17
2018-07-07T01:09:40.338Z,17.17
2018-07-07T01:10:40.324Z,17.16
2018-07-07T01:11:40.307Z,17.19
2018-07-07T01:12:40.293Z,17.27
2018-07-07T01:13:40.280Z,17.17
2018-07-07T01:14:40.264Z,17.17
2018-07-07T01:15:40.251Z,17.22
2018-07-07T01:16:40.237Z,17.12
2018-07-07T01:17:40.222Z,17.14
2018-07-07T01:18:40.219Z,17.19
2018-07-07T01:19:40.201Z,17.14
2018-07-07T01:20:40.179Z,17.02
2018-07-07T01:21:40.166Z,17.04
2018-07-07T01:22:40.150Z,16.98
2018-07-07T01:23:40.135Z,16.92
2018-07-07T01:24:40.122Z,16.95
2018-07-07T01:25:40.125Z,16.94
2018-07-07T01:26:40.094Z,16.95
2018-07-07T01:27:40.086Z,16.94
2018-07-07T01:28:40.065Z,16.97
2018-07-07T01:29:40.051Z,16.89
2018-07-07T01:30:40.045Z,16.80
2018-07-07T01:31:40.025Z,16.74
2018-07-07T01:32:40.008Z,16.83
2018-07-07T01:33:39.993Z,16.74
2018-07-07T01:34:39.977Z,16.83
2018-07-07T01:35:39.964Z,16.84
2018-07-07T01:36:39.950Z,16.82
2018-07-07T01:37:39.968Z,16.86
2018-07-07T01:38:39.922Z,16.77
2018-07-07T01:39:39.906Z,16.84
2018-07-07T01:40:39.893Z,16.83
2018-07-07T01:41:39.887Z,16.82
2018-07-07T01:42:39.870Z,16.84
2018-07-07T01:43:39.850Z,16.86
2018-07-07T01:44:39.837Z,16.84
2018-07-07T01:45:39.824Z,16.87
2018-07-07T01:46:39.806Z,16.87
2018-07-07T01:47:39.791Z,16.84
2018-07-07T01:48:39.813Z,16.80
2018-07-07T01:49:39.764Z,16.87
2018-07-07T01:50:39.748Z,16.83
2018-07-07T01:51:39.732Z,16.79
2018-07-07T01:52:39.720Z,16.83
2018-07-07T01:53:39.705Z,16.80
2018-07-07T01:54:39.689Z,16.77
2018-07-07T01:55:39.675Z,16.86
2018-07-07T01:56:39.662Z,16.82
2018-07-07T01:57:39.652Z,16.77
2018-07-07T01:58:39.684Z,16.84
2018-07-07T01:59:39.624Z,16.87
2018-07-07T02:00:39.612Z,16.76
2018-07-07T02:01:39.597Z,16.80
2018-07-07T02:02:39.582Z,16.77
2018-07-07T02:03:39.562Z,16.76
2018-07-07T02:04:39.548Z,16.79
2018-07-07T02:05:39.534Z,16.72
2018-07-07T02:06:39.517Z,16.72
2018-07-07T02:07:39.503Z,16.59
2018-07-07T02:08:39.490Z,16.73
2018-07-07T02:09:39.479Z,16.72
2018-07-07T02:10:39.465Z,16.59
2018-07-07T02:11:39.444Z,16.59
2018-07-07T02:12:39.431Z,16.62
2018-07-07T02:13:39.419Z,16.58
2018-07-07T02:14:39.408Z,16.55
2018-07-07T02:15:39.387Z,16.54
2018-07-07T02:16:39.370Z,16.59
2018-07-07T02:17:39.372Z,16.59
2018-07-07T02:18:39.347Z,16.62
2018-07-07T02:19:39.338Z,16.66
2018-07-07T02:20:39.313Z,16.51
2018-07-07T02:21:39.300Z,16.64
2018-07-07T02:22:39.436Z,16.59
2018-07-07T02:23:39.271Z,16.61
2018-07-07T02:24:39.255Z,16.61
2018-07-07T02:25:39.244Z,16.77
2018-07-07T02:26:39.238Z,16.69
2018-07-07T02:27:39.212Z,16.82
2018-07-07T02:28:39.197Z,16.72
2018-07-07T02:29:39.183Z,16.72
2018-07-07T02:30:39.169Z,16.65
2018-07-07T02:31:39.157Z,16.62
2018-07-07T02:32:39.140Z,16.58
2018-07-07T02:33:39.125Z,16.61
2018-07-07T02:34:39.114Z,16.61
2018-07-07T02:35:39.097Z,16.65
2018-07-07T02:36:39.082Z,16.77
2018-07-07T02:37:39.070Z,16.51
2018-07-07T02:38:39.054Z,16.55
2018-07-07T02:39:39.043Z,16.54
2018-07-07T02:40:39.023Z,16.55
2018-07-07T02:41:39.015Z,16.55
2018-07-07T02:42:38.994Z,16.44
2018-07-07T02:43:38.985Z,16.50
2018-07-07T02:44:38.975Z,16.47
2018-07-07T02:45:38.956Z,16.51
2018-07-07T02:46:38.934Z,16.46
2018-07-07T02:47:38.927Z,16.46
2018-07-07T02:48:38.912Z,16.46
2018-07-07T02:49:38.892Z,16.43
2018-07-07T02:50:38.876Z,16.40
2018-07-07T02:51:38.861Z,16.43
2018-07-07T02:52:38.850Z,16.37
2018-07-07T02:53:38.832Z,16.37
2018-07-07T02:54:38.818Z,16.44
2018-07-07T02:55:38.802Z,16.44
2018-07-07T02:56:38.791Z,16.36
2018-07-07T02:57:38.782Z,16.34
2018-07-07T02:58:38.757Z,16.40
2018-07-07T02:59:38.745Z,16.36
2018-07-07T03:00:38.729Z,16.41
2018-07-07T03:01:38.714Z,16.36
2018-07-07T03:02:38.700Z,16.40
2018-07-07T03:03:38.684Z,16.36
2018-07-07T03:04:38.670Z,16.37
2018-07-07T03:05:38.655Z,16.40
2018-07-07T03:06:38.644Z,16.34
2018-07-07T03:07:38.624Z,16.31
2018-07-07T03:08:38.613Z,16.31
2018-07-07T03:09:38.597Z,16.26
2018-07-07T03:10:38.581Z,16.13
2018-07-07T03:11:38.571Z,16.28
2018-07-07T03:12:38.551Z,16.10
2018-07-07T03:13:38.537Z,16.10
2018-07-07T03:14:38.527Z,16.02
2018-07-07T03:15:38.507Z,15.99
2018-07-07T03:16:38.494Z,16.10
2018-07-07T03:17:38.479Z,16.12
2018-07-07T03:18:38.463Z,16.08
2018-07-07T03:19:38.451Z,16.03
2018-07-07T03:20:38.445Z,16.18
2018-07-07T03:21:38.419Z,16.06
2018-07-07T03:22:38.404Z,16.13
2018-07-07T03:23:38.388Z,16.10
2018-07-07T03:24:38.374Z,16.18
2018-07-07T03:25:38.361Z,16.03
2018-07-07T03:26:38.345Z,16.00
2018-07-07T03:27:38.432Z,16.03
2018-07-07T03:28:38.316Z,16.08
2018-07-07T03:29:38.299Z,16.05
2018-07-07T03:30:38.285Z,15.99
2018-07-07T03:31:38.272Z,15.87
2018-07-07T03:32:38.255Z,15.85
2018-07-07T03:33:38.241Z,15.90
2018-07-07T03:34:38.234Z,16.00
2018-07-07T03:35:38.209Z,15.91
2018-07-07T03:36:38.198Z,15.91
2018-07-07T03:37:38.179Z,15.85
2018-07-07T03:38:38.163Z,15.94
2018-07-07T03:39:38.150Z,16.00
2018-07-07T03:40:38.135Z,16.02
2018-07-07T03:41:38.120Z,16.10
2018-07-07T03:42:38.105Z,16.03
2018-07-07T03:43:38.089Z,15.99
2018-07-07T03:44:38.074Z,15.90
2018-07-07T03:45:38.063Z,15.98
2018-07-07T03:46:38.045Z,15.92
2018-07-07T03:47:38.030Z,15.99
2018-07-07T03:48:38.023Z,15.81
2018-07-07T03:49:38.002Z,15.92
2018-07-07T03:50:37.983Z,15.92
2018-07-07T03:51:38.070Z,16.00
2018-07-07T03:52:37.955Z,16.00
2018-07-07T03:53:37.939Z,16.03
2018-07-07T03:54:37.925Z,16.03
2018-07-07T03:55:37.908Z,16.06
2018-07-07T03:56:37.895Z,16.00
2018-07-07T03:57:37.884Z,15.99
2018-07-07T03:58:37.865Z,16.08
2018-07-07T03:59:37.849Z,16.05
2018-07-07T04:00:37.832Z,16.05
2018-07-07T04:01:37.827Z,15.99
2018-07-07T04:02:37.804Z,16.00
2018-07-07T04:03:37.788Z,15.98
2018-07-07T04:04:37.774Z,15.94
2018-07-07T04:05:37.760Z,15.94
2018-07-07T04:06:37.745Z,15.87
2018-07-07T04:07:37.730Z,15.96
2018-07-07T04:08:37.713Z,16.00
2018-07-07T04:09:37.704Z,16.05
2018-07-07T04:10:37.683Z,16.02
2018-07-07T04:11:37.669Z,16.08
2018-07-07T04:12:37.660Z,16.12
2018-07-07T04:13:37.647Z,16.18
2018-07-07T04:14:37.623Z,16.13
2018-07-07T04:15:37.608Z,16.28
2018-07-07T04:16:37.593Z,16.17
2018-07-07T04:17:37.579Z,16.17
2018-07-07T04:18:37.564Z,16.18
2018-07-07T04:19:37.553Z,16.28
2018-07-07T04:20:37.532Z,16.18
2018-07-07T04:21:37.517Z,16.29
2018-07-07T04:22:37.503Z,16.25
2018-07-07T04:23:37.487Z,16.28
2018-07-07T04:24:37.491Z,16.24
2018-07-07T04:25:37.459Z,16.26
2018-07-07T04:26:37.444Z,16.29
2018-07-07T04:27:37.427Z,16.31
2018-07-07T04:28:37.423Z,16.28
2018-07-07T04:29:37.398Z,16.22
2018-07-07T04:30:37.388Z,16.16
2018-07-07T04:31:37.368Z,16.03
2018-07-07T04:32:37.355Z,16.24
2018-07-07T04:33:37.341Z,16.29
2018-07-07T04:34:37.325Z,16.31
2018-07-07T04:35:37.308Z,16.31
2018-07-07T04:36:37.294Z,16.34
2018-07-07T04:37:37.279Z,16.32
2018-07-07T04:38:37.269Z,16.37
2018-07-07T04:39:37.250Z,16.49
2018-07-07T04:40:37.236Z,16.61
2018-07-07T04:41:37.220Z,16.72
2018-07-07T04:42:37.205Z,16.76
2018-07-07T04:43:37.191Z,16.84
2018-07-07T04:44:37.176Z,16.92
2018-07-07T04:45:37.162Z,16.94
2018-07-07T04:46:37.148Z,16.92
2018-07-07T04:47:37.137Z,16.83
2018-07-07T04:48:37.115Z,16.79
2018-07-07T04:49:37.111Z,16.84
2018-07-07T04:50:37.093Z,16.86
2018-07-07T04:51:37.071Z,16.80
2018-07-07T04:52:37.059Z,16.84
2018-07-07T04:53:37.060Z,16.94
2018-07-07T04:54:37.031Z,16.83
2018-07-07T04:55:37.029Z,16.80
2018-07-07T04:56:36.998Z,16.94
2018-07-07T04:57:36.986Z,16.95
2018-07-07T04:58:36.969Z,16.97
2018-07-07T04:59:36.956Z,16.95
2018-07-07T05:00:36.945Z,16.92
2018-07-07T05:01:36.930Z,16.98
2018-07-07T05:02:36.916Z,17.04
2018-07-07T05:03:36.897Z,16.91
2018-07-07T05:04:36.957Z,16.99
2018-07-07T05:05:36.871Z,17.09
2018-07-07T05:06:36.854Z,17.16
2018-07-07T05:07:36.839Z,17.20
2018-07-07T05:08:36.823Z,17.17
2018-07-07T05:09:36.809Z,17.32
2018-07-07T05:10:36.802Z,17.20
2018-07-07T05:11:36.781Z,17.16
2018-07-07T05:12:36.866Z,17.19
2018-07-07T05:13:36.751Z,17.13
2018-07-07T05:14:36.738Z,17.20
2018-07-07T05:15:36.753Z,17.23
2018-07-07T05:16:36.708Z,17.17
2018-07-07T05:17:36.702Z,17.17
2018-07-07T05:18:36.691Z,17.24
2018-07-07T05:19:36.676Z,17.24
2018-07-07T05:20:36.649Z,17.28
2018-07-07T05:21:36.636Z,17.35
2018-07-07T05:22:36.626Z,17.31
2018-07-07T05:23:36.610Z,17.31
2018-07-07T05:24:36.592Z,17.30
2018-07-07T05:25:36.580Z,17.37
2018-07-07T05:26:36.572Z,17.39
2018-07-07T05:27:36.549Z,17.41
2018-07-07T05:28:36.537Z,17.46
2018-07-07T05:29:36.524Z,17.53
2018-07-07T05:30:36.506Z,17.66
2018-07-07T05:31:36.490Z,17.53
2018-07-07T05:32:36.477Z,17.57
2018-07-07T05:33:36.464Z,17.54
2018-07-07T05:34:36.450Z,17.66
2018-07-07T05:35:36.433Z,17.72
2018-07-07T05:36:36.420Z,17.60
2018-07-07T05:37:36.408Z,17.75
2018-07-07T05:38:36.397Z,17.90
2018-07-07T05:39:36.377Z,17.78
2018-07-07T05:40:36.363Z,17.76
2018-07-07T05:41:36.350Z,17.88
2018-07-07T05:42:36.344Z,18.05
2018-07-07T05:43:36.321Z,18.09
2018-07-07T05:44:36.315Z,18.64
2018-07-07T05:45:36.292Z,19.79
2018-07-07T05:46:36.280Z,20.83
2018-07-07T05:47:36.264Z,21.72
2018-07-07T05:48:36.254Z,22.44
2018-07-07T05:49:36.239Z,22.92
2018-07-07T05:50:36.227Z,23.32
2018-07-07T05:51:36.209Z,23.69
2018-07-07T05:52:36.198Z,24.10
2018-07-07T05:53:36.185Z,24.40
2018-07-07T05:54:36.172Z,24.29
2018-07-07T05:55:36.159Z,24.58
2018-07-07T05:56:36.148Z,24.79
2018-07-07T05:57:36.145Z,25.15
2018-07-07T05:58:36.129Z,25.26
2018-07-07T05:59:36.116Z,24.62
2018-07-07T06:00:36.107Z,24.53
2018-07-07T06:01:36.103Z,24.37
2018-07-07T06:02:36.084Z,24.28
2018-07-07T06:03:36.074Z,24.19
2018-07-07T06:04:36.073Z,23.81
2018-07-07T06:05:36.067Z,23.59
2018-07-07T06:06:36.048Z,23.95
2018-07-07T06:07:36.041Z,24.50
2018-07-07T06:08:36.031Z,24.89
2018-07-07T06:09:36.023Z,25.34
2018-07-07T06:10:36.016Z,25.88
2018-07-07T06:11:36.010Z,26.34
2018-07-07T06:12:35.998Z,26.63
2018-07-07T06:13:35.991Z,26.68
2018-07-07T06:14:35.986Z,26.67
2018-07-07T06:15:35.976Z,26.67
2018-07-07T06:16:35.970Z,27.10
2018-07-07T06:17:35.964Z,27.04
2018-07-07T06:18:35.963Z,27.07
2018-07-07T06:19:35.956Z,27.29
2018-07-07T06:20:35.945Z,26.71
2018-07-07T06:21:35.940Z,26.31
2018-07-07T06:22:35.942Z,26.33
2018-07-07T06:23:35.928Z,26.52
2018-07-07T06:24:35.922Z,26.51
2018-07-07T06:25:35.919Z,26.33
2018-07-07T06:26:35.995Z,26.49
2018-07-07T06:27:35.916Z,26.53
2018-07-07T06:28:35.904Z,26.37
2018-07-07T06:29:35.900Z,26.33
2018-07-07T06:30:35.895Z,26.31
2018-07-07T06:31:35.889Z,26.34
2018-07-07T06:32:35.893Z,26.19
2018-07-07T06:33:35.881Z,26.59
2018-07-07T06:34:35.889Z,26.36
2018-07-07T06:35:35.872Z,25.74
2018-07-07T06:36:35.868Z,25.99
2018-07-07T06:37:35.864Z,26.63
2018-07-07T06:38:35.864Z,27.07
2018-07-07T06:39:35.859Z,27.38
2018-07-07T06:40:35.854Z,27.60
2018-07-07T06:41:35.851Z,27.95
2018-07-07T06:42:35.853Z,28.10
2018-07-07T06:43:35.847Z,28.20
2018-07-07T06:44:35.840Z,28.22
2018-07-07T06:45:35.840Z,28.19
2018-07-07T06:46:35.837Z,28.28
2018-07-07T06:47:35.841Z,28.19
2018-07-07T06:48:35.843Z,28.34
2018-07-07T06:49:35.829Z,28.62
2018-07-07T06:50:35.835Z,28.94
2018-07-07T06:51:35.825Z,28.78
2018-07-07T06:52:35.830Z,29.25
2018-07-07T06:53:35.852Z,29.25
2018-07-07T06:54:35.827Z,29.25
2018-07-07T06:55:35.832Z,29.55
2018-07-07T06:56:35.818Z,29.55
2018-07-07T06:57:35.816Z,29.58
2018-07-07T06:58:35.823Z,29.62
2018-07-07T06:59:35.912Z,28.80
2018-07-07T07:00:35.843Z,28.41
2018-07-07T07:01:35.826Z,28.19
2018-07-07T07:02:35.822Z,28.03
2018-07-07T07:03:35.823Z,28.13
2018-07-07T07:04:35.810Z,28.19
2018-07-07T07:05:35.823Z,27.85
2018-07-07T07:06:35.854Z,27.10
2018-07-07T07:07:35.810Z,27.20
2018-07-07T07:08:35.809Z,27.07
2018-07-07T07:09:35.813Z,27.05
2018-07-07T07:10:35.810Z,27.20
2018-07-07T07:11:35.811Z,27.94
2018-07-07T07:12:35.809Z,28.22
2018-07-07T07:13:35.810Z,27.94
2018-07-07T07:14:35.809Z,28.34
2018-07-07T07:15:35.814Z,28.62
2018-07-07T07:16:35.820Z,28.57
2018-07-07T07:17:35.830Z,28.08
2018-07-07T07:18:35.812Z,27.41
2018-07-07T07:19:35.813Z,27.23
2018-07-07T07:20:35.812Z,26.74
2018-07-07T07:21:35.812Z,26.56
2018-07-07T07:22:35.820Z,26.55
2018-07-07T07:23:35.813Z,26.18
2018-07-07T07:24:35.814Z,25.93
2018-07-07T07:25:35.825Z,25.55
2018-07-07T07:26:35.822Z,25.71
2018-07-07T07:27:35.844Z,25.98
2018-07-07T07:28:35.814Z,25.80
2018-07-07T07:29:35.825Z,26.07
2018-07-07T07:30:35.815Z,26.30
2018-07-07T07:31:35.821Z,26.37
2018-07-07T07:32:35.864Z,26.37
2018-07-07T07:33:35.815Z,26.26
2018-07-07T07:34:35.824Z,26.18
2018-07-07T07:35:35.825Z,25.63
2018-07-07T07:36:35.824Z,25.33
2018-07-07T07:37:35.816Z,25.30
2018-07-07T07:38:35.823Z,25.37
2018-07-07T07:39:35.814Z,25.36
2018-07-07T07:40:35.822Z,25.29
2018-07-07T07:41:35.812Z,25.14
2018-07-07T07:42:35.813Z,25.24
2018-07-07T07:43:35.813Z,25.40
2018-07-07T07:44:35.810Z,25.37
2018-07-07T07:45:35.874Z,25.26
2018-07-07T07:46:35.810Z,25.00
2018-07-07T07:47:35.815Z,24.78
2018-07-07T07:48:35.821Z,24.69
2018-07-07T07:49:35.805Z,24.69
2018-07-07T07:50:35.799Z,24.71
2018-07-07T07:51:35.801Z,24.78
2018-07-07T07:52:35.799Z,24.84
2018-07-07T07:53:35.801Z,24.69
2018-07-07T07:54:35.787Z,24.75
2018-07-07T07:55:35.800Z,24.71
2018-07-07T07:56:35.779Z,24.50
2018-07-07T07:57:35.775Z,24.88
2018-07-07T07:58:35.771Z,25.11
2018-07-07T07:59:35.767Z,25.36
2018-07-07T08:00:35.763Z,25.40
2018-07-07T08:01:35.761Z,25.62
2018-07-07T08:02:35.752Z,25.78
2018-07-07T08:03:35.859Z,25.88
2018-07-07T08:04:35.766Z,25.62
2018-07-07T08:05:35.742Z,25.06
2018-07-07T08:06:35.733Z,24.56
2018-07-07T08:07:35.731Z,24.32
2018-07-07T08:08:35.719Z,23.54
2018-07-07T08:09:35.714Z,23.21
2018-07-07T08:10:35.718Z,23.49
2018-07-07T08:11:35.702Z,23.48
2018-07-07T08:12:35.737Z,23.85
2018-07-07T08:13:35.698Z,24.10
2018-07-07T08:14:35.693Z,23.94
2018-07-07T08:15:35.689Z,23.81
2018-07-07T08:16:35.685Z,23.54
2018-07-07T08:17:35.671Z,23.33
2018-07-07T08:18:35.661Z,23.17
2018-07-07T08:19:35.655Z,23.08
2018-07-07T08:20:35.648Z,23.23
2018-07-07T08:21:35.642Z,23.10
2018-07-07T08:22:35.658Z,22.98
2018-07-07T08:23:35.635Z,22.68
2018-07-07T08:24:35.632Z,22.73
2018-07-07T08:25:35.627Z,22.65
2018-07-07T08:26:35.610Z,22.65
2018-07-07T08:27:35.609Z,23.25
2018-07-07T08:28:35.597Z,23.79
2018-07-07T08:29:35.598Z,23.94
2018-07-07T08:30:35.584Z,23.88
2018-07-07T08:31:35.588Z,23.66
2018-07-07T08:32:35.624Z,23.34
2018-07-07T08:33:35.562Z,23.59
2018-07-07T08:34:35.618Z,23.51
2018-07-07T08:35:35.549Z,23.73
2018-07-07T08:36:35.542Z,24.03
2018-07-07T08:37:35.533Z,24.31
2018-07-07T08:38:35.526Z,24.56
2018-07-07T08:39:35.526Z,24.34
2018-07-07T08:40:35.513Z,24.32
2018-07-07T08:41:35.505Z,24.65
2018-07-07T08:42:35.500Z,24.81
2018-07-07T08:43:35.489Z,24.85
2018-07-07T08:44:35.480Z,25.00
2018-07-07T08:45:35.475Z,24.88
2018-07-07T08:46:35.465Z,24.79
2018-07-07T08:47:35.460Z,24.81
2018-07-07T08:48:35.493Z,24.77
2018-07-07T08:49:35.462Z,24.93
2018-07-07T08:50:35.432Z,25.44
2018-07-07T08:51:35.423Z,25.36
2018-07-07T08:52:35.424Z,25.73
2018-07-07T08:53:35.409Z,25.62
2018-07-07T08:54:35.399Z,25.51
2018-07-07T08:55:35.391Z,25.01
2018-07-07T08:56:35.384Z,24.18
2018-07-07T08:57:35.382Z,23.85
2018-07-07T08:58:35.367Z,24.04
2018-07-07T08:59:35.358Z,24.47
2018-07-07T09:00:35.355Z,24.84
2018-07-07T09:01:35.351Z,24.69
2018-07-07T09:02:35.343Z,25.21
2018-07-07T09:03:35.326Z,24.77
2018-07-07T09:04:35.319Z,24.71
2018-07-07T09:05:35.311Z,24.69
2018-07-07T09:06:35.305Z,24.51
2018-07-07T09:07:35.333Z,24.55
2018-07-07T09:08:35.295Z,24.62
2018-07-07T09:09:35.288Z,24.55
2018-07-07T09:10:35.274Z,24.43
2018-07-07T09:11:35.272Z,24.41
2018-07-07T09:12:35.293Z,24.40
2018-07-07T09:13:35.264Z,24.46
2018-07-07T09:14:35.243Z,24.47
2018-07-07T09:15:35.247Z,24.24
2018-07-07T09:16:35.245Z,24.96
2018-07-07T09:17:35.243Z,25.36
2018-07-07T09:18:35.217Z,25.24
2018-07-07T09:19:35.220Z,25.01
2018-07-07T09:20:35.209Z,24.81
2018-07-07T09:21:35.203Z,25.07
2018-07-07T09:22:35.205Z,25.21
2018-07-07T09:23:35.196Z,25.52
2018-07-07T09:24:35.221Z,25.85
2018-07-07T09:25:35.183Z,26.30
2018-07-07T09:26:35.191Z,26.10
2018-07-07T09:27:35.176Z,25.54
2018-07-07T09:28:35.174Z,25.55
2018-07-07T09:29:35.165Z,25.66
2018-07-07T09:30:35.161Z,26.08
2018-07-07T09:31:35.200Z,25.95
2018-07-07T09:32:35.158Z,26.19
2018-07-07T09:33:35.149Z,26.74
2018-07-07T09:34:35.143Z,26.83
2018-07-07T09:35:35.138Z,26.67
2018-07-07T09:36:35.133Z,26.22
2018-07-07T09:37:35.128Z,26.13
2018-07-07T09:38:35.126Z,26.64
2018-07-07T09:39:35.123Z,27.05
2018-07-07T09:40:35.116Z,27.18
2018-07-07T09:41:35.117Z,27.16
2018-07-07T09:42:35.116Z,27.20
2018-07-07T09:43:35.110Z,27.29
2018-07-07T09:44:35.101Z,27.20
2018-07-07T09:45:35.101Z,27.04
2018-07-07T09:46:35.106Z,27.55
2018-07-07T09:47:35.104Z,27.55
2018-07-07T09:48:35.100Z,27.30
2018-07-07T09:49:35.098Z,27.15
2018-07-07T09:50:35.092Z,27.23
2018-07-07T09:51:35.087Z,27.35
2018-07-07T09:52:35.082Z,27.29
2018-07-07T09:53:35.080Z,27.57
2018-07-07T09:54:35.077Z,27.88
2018-07-07T09:55:35.075Z,28.18
2018-07-07T09:56:35.072Z,28.22
2018-07-07T09:57:35.068Z,28.27
2018-07-07T09:58:35.066Z,28.35
2018-07-07T09:59:35.061Z,28.25
2018-07-07T10:00:35.058Z,28.25
2018-07-07T10:01:35.058Z,28.16
2018-07-07T10:02:35.053Z,28.15
2018-07-07T10:03:35.048Z,28.28
2018-07-07T10:04:35.053Z,28.45
2018-07-07T10:05:35.051Z,28.22
2018-07-07T10:06:35.048Z,28.27
2018-07-07T10:07:35.040Z,28.60
2018-07-07T10:08:35.035Z,29.16
2018-07-07T10:09:35.099Z,29.32
2018-07-07T10:10:35.041Z,30.05
2018-07-07T10:11:35.042Z,30.51
2018-07-07T10:12:35.031Z,30.77
2018-07-07T10:13:35.127Z,30.93
2018-07-07T10:14:35.039Z,31.28
2018-07-07T10:15:35.040Z,31.10
2018-07-07T10:16:35.036Z,31.13
2018-07-07T10:17:35.030Z,31.18
2018-07-07T10:18:35.029Z,30.92
2018-07-07T10:19:35.136Z,30.99
2018-07-07T10:20:35.086Z,31.08
2018-07-07T10:21:35.030Z,31.26
2018-07-07T10:22:35.045Z,31.42
2018-07-07T10:23:35.033Z,31.67
2018-07-07T10:24:35.037Z,31.79
2018-07-07T10:25:35.037Z,31.79
2018-07-07T10:26:35.040Z,31.95
2018-07-07T10:27:35.042Z,31.97
2018-07-07T10:28:35.054Z,32.05
2018-07-07T10:29:35.065Z,32.17
2018-07-07T10:30:35.052Z,32.09
2018-07-07T10:31:35.121Z,31.77
2018-07-07T10:32:35.161Z,31.69
2018-07-07T10:33:35.065Z,31.70
2018-07-07T10:34:35.078Z,31.36
2018-07-07T10:35:35.072Z,31.50
2018-07-07T10:36:35.085Z,31.66
2018-07-07T10:37:35.152Z,31.98
2018-07-07T10:38:35.088Z,31.92
2018-07-07T10:39:35.105Z,31.41
2018-07-07T10:40:35.101Z,31.07
2018-07-07T10:41:35.107Z,31.35
2018-07-07T10:42:35.113Z,31.89
2018-07-07T10:43:35.130Z,32.07
2018-07-07T10:44:35.124Z,32.44
2018-07-07T10:45:35.190Z,31.97
2018-07-07T10:46:35.138Z,31.54
2018-07-07T10:47:35.153Z,31.93
2018-07-07T10:48:35.154Z,32.00
2018-07-07T10:49:35.165Z,32.09
2018-07-07T10:50:35.172Z,32.29
2018-07-07T10:51:35.186Z,32.16
2018-07-07T10:52:35.186Z,31.79
2018-07-07T10:53:35.192Z,31.87
2018-07-07T10:54:35.192Z,31.50
2018-07-07T10:55:35.270Z,31.50
2018-07-07T10:56:35.216Z,31.50
2018-07-07T10:57:35.421Z,31.69
2018-07-07T10:58:35.225Z,31.45
2018-07-07T10:59:35.232Z,31.42
2018-07-07T11:00:35.235Z,31.60
2018-07-07T11:01:35.243Z,31.60
2018-07-07T11:02:35.304Z,31.28
2018-07-07T11:03:35.258Z,31.07
2018-07-07T11:04:35.268Z,31.11
2018-07-07T11:05:35.271Z,30.95
2018-07-07T11:06:35.278Z,31.22
2018-07-07T11:07:35.286Z,31.67
2018-07-07T11:08:35.298Z,31.51
2018-07-07T11:09:35.300Z,31.74
2018-07-07T11:10:35.308Z,31.81
2018-07-07T11:11:35.316Z,32.11
2018-07-07T11:12:35.324Z,32.23
2018-07-07T11:13:35.337Z,32.22
2018-07-07T11:14:35.355Z,31.97
2018-07-07T11:15:35.347Z,31.87
2018-07-07T11:16:35.356Z,32.08
2018-07-07T11:17:35.368Z,31.93
2018-07-07T11:18:35.383Z,31.98
2018-07-07T11:19:35.392Z,31.73
2018-07-07T11:20:35.385Z,31.70
2018-07-07T11:21:35.400Z,31.69
2018-07-07T11:22:35.400Z,31.74
2018-07-07T11:23:35.412Z,31.63
2018-07-07T11:24:35.415Z,31.48
2018-07-07T11:25:35.422Z,31.42
2018-07-07T11:26:35.435Z,31.22
2018-07-07T11:27:35.437Z,31.42
2018-07-07T11:28:35.453Z,31.33
2018-07-07T11:29:35.452Z,31.08
2018-07-07T11:30:35.469Z,30.93
2018-07-07T11:31:35.480Z,31.02
2018-07-07T11:32:35.481Z,31.07
2018-07-07T11:33:35.483Z,30.98
2018-07-07T11:34:35.490Z,30.69
2018-07-07T11:35:35.505Z,30.46
2018-07-07T11:36:35.631Z,30.48
2018-07-07T11:37:35.518Z,30.71
2018-07-07T11:38:35.567Z,30.40
2018-07-07T11:39:35.525Z,30.52
2018-07-07T11:40:35.534Z,30.73
2018-07-07T11:41:35.537Z,30.71
2018-07-07T11:42:35.542Z,30.61
2018-07-07T11:43:35.559Z,30.58
2018-07-07T11:44:35.556Z,30.52
2018-07-07T11:45:35.568Z,30.20
2018-07-07T11:46:35.566Z,29.99
2018-07-07T11:47:35.581Z,29.74
2018-07-07T11:48:35.575Z,29.89
2018-07-07T11:49:35.581Z,29.53
2018-07-07T11:50:35.697Z,29.84
2018-07-07T11:51:35.595Z,29.96
2018-07-07T11:52:35.594Z,29.99
2018-07-07T11:53:35.598Z,29.95
2018-07-07T11:54:35.608Z,29.99
2018-07-07T11:55:35.606Z,30.05
2018-07-07T11:56:35.606Z,29.81
2018-07-07T11:57:35.609Z,29.34
2018-07-07T11:58:35.613Z,28.92
2018-07-07T11:59:35.615Z,28.64
2018-07-07T12:00:35.619Z,28.55
2018-07-07T12:01:35.716Z,28.37
2018-07-07T12:02:35.613Z,28.40
2018-07-07T12:03:35.664Z,28.27
2018-07-07T12:04:35.650Z,28.22
2018-07-07T12:05:35.615Z,28.23
2018-07-07T12:06:35.620Z,28.00
2018-07-07T12:07:35.620Z,27.88
2018-07-07T12:08:35.614Z,27.98
2018-07-07T12:09:35.617Z,27.79
2018-07-07T12:10:35.606Z,27.57
2018-07-07T12:11:35.657Z,27.48
2018-07-07T12:12:35.607Z,27.47
2018-07-07T12:13:35.600Z,27.43
2018-07-07T12:14:35.607Z,27.30
2018-07-07T12:15:35.595Z,27.16
2018-07-07T12:16:35.597Z,27.16
2018-07-07T12:17:35.600Z,27.15
2018-07-07T12:18:35.581Z,27.13
2018-07-07T12:19:35.578Z,27.28
2018-07-07T12:20:35.582Z,27.20
2018-07-07T12:21:35.571Z,27.11
2018-07-07T12:22:35.573Z,27.15
2018-07-07T12:23:35.567Z,27.01
2018-07-07T12:24:35.560Z,27.00
2018-07-07T12:25:35.555Z,27.04
2018-07-07T12:26:35.555Z,27.01
2018-07-07T12:27:35.547Z,26.97
2018-07-07T12:28:35.547Z,26.93
2018-07-07T12:29:35.532Z,26.91
2018-07-07T12:30:35.528Z,27.03
2018-07-07T12:31:35.521Z,27.23
2018-07-07T12:32:35.515Z,27.20
2018-07-07T12:33:35.512Z,27.20
2018-07-07T12:34:35.514Z,27.28
2018-07-07T12:35:35.504Z,27.28
2018-07-07T12:36:35.537Z,27.35
2018-07-07T12:37:35.488Z,27.13
2018-07-07T12:38:35.483Z,27.18
2018-07-07T12:39:35.475Z,27.05
2018-07-07T12:40:35.571Z,27.03
2018-07-07T12:41:35.473Z,26.91
2018-07-07T12:42:35.458Z,26.82
2018-07-07T12:43:35.490Z,26.97
2018-07-07T12:44:35.446Z,27.05
2018-07-07T12:45:35.439Z,27.10
2018-07-07T12:46:35.433Z,27.18
2018-07-07T12:47:35.432Z,27.05
2018-07-07T12:48:35.577Z,26.89
2018-07-07T12:49:35.427Z,26.98
2018-07-07T12:50:35.406Z,26.96
2018-07-07T12:51:35.404Z,26.91
2018-07-07T12:52:35.399Z,26.93